createdAt,value
2022-12-25T00:01:06.722Z,7.10
2022-12-25T00:03:33.638Z,6.43
2022-12-25T00:06:00.319Z,6.38
2022-12-25T00:08:27.054Z,5.95
2022-12-25T00:11:02.499Z,7.97
2022-12-25T00:13:29.536Z,6.80
2022-12-25T00:15:56.693Z,6.68
2022-12-25T00:18:23.676Z,6.40
2022-12-25T00:21:01.121Z,5.80
2022-12-25T00:23:27.918Z,7.45
2022-12-25T00:25:54.956Z,7.45
2022-12-25T00:28:23.176Z,6.15
2022-12-25T00:30:49.983Z,7.00
2022-12-25T00:33:16.803Z,5.95
2022-12-25T00:35:43.449Z,6.47
2022-12-25T00:38:10.413Z,6.53
2022-12-25T00:40:44.230Z,6.72
2022-12-25T00:43:11.161Z,6.10
2022-12-25T00:45:37.899Z,7.00
2022-12-25T00:48:04.689Z,5.82
2022-12-25T00:50:31.349Z,6.57
2022-12-25T00:52:57.939Z,6.30
2022-12-25T00:55:24.581Z,7.97
2022-12-25T00:57:51.207Z,6.07
2022-12-25T01:00:18.015Z,6.13
2022-12-25T01:02:44.849Z,5.72
2022-12-25T01:05:11.482Z,6.47
2022-12-25T01:07:38.081Z,5.90
2022-12-25T01:10:23.341Z,5.93
2022-12-25T01:12:51.655Z,7.03
2022-12-25T01:15:19.179Z,6.95
2022-12-25T01:17:45.909Z,6.20
2022-12-25T01:20:14.072Z,6.13
2022-12-25T01:22:40.760Z,6.60
2022-12-25T01:25:09.186Z,6.03
2022-12-25T01:27:35.817Z,6.70
2022-12-25T01:30:02.491Z,6.68
2022-12-25T01:32:29.136Z,5.82
2022-12-25T01:34:56.512Z,7.38
2022-12-25T01:37:24.820Z,6.60
2022-12-25T01:39:51.765Z,6.50
2022-12-25T01:42:20.687Z,6.72
2022-12-25T01:44:47.237Z,6.72
2022-12-25T01:47:16.373Z,6.68
2022-12-25T01:49:46.216Z,6.97
2022-12-25T01:52:24.495Z,6.07
2022-12-25T01:55:04.127Z,7.28
2022-12-25T01:57:34.403Z,5.15
2022-12-25T02:00:01.958Z,5.60
2022-12-25T02:02:32.277Z,6.32
2022-12-25T02:05:04.351Z,6.55
2022-12-25T02:07:34.751Z,5.93
2022-12-25T02:10:01.465Z,5.53
2022-12-25T02:12:34.079Z,4.75
2022-12-25T02:15:11.581Z,6.78
2022-12-25T02:17:47.331Z,5.97
2022-12-25T02:20:25.945Z,6.43
2022-12-25T02:23:05.433Z,5.20
2022-12-25T02:26:10.263Z,6.38
2022-12-25T02:28:46.487Z,6.03
2022-12-25T02:31:39.917Z,6.28
2022-12-25T02:34:20.691Z,5.75
2022-12-25T02:37:01.493Z,6.53
2022-12-25T02:39:55.661Z,5.90
2022-12-25T02:43:16.475Z,6.78
2022-12-25T02:46:12.360Z,5.72
2022-12-25T02:49:03.595Z,5.88
2022-12-25T02:51:53.214Z,6.13
2022-12-25T02:54:45.443Z,6.90
2022-12-25T02:57:33.249Z,6.00
2022-12-25T03:00:20.622Z,5.28
2022-12-25T03:03:07.559Z,6.20
2022-12-25T03:05:58.795Z,6.28
2022-12-25T03:08:34.652Z,5.38
2022-12-25T03:11:26.390Z,6.63
2022-12-25T03:14:17.826Z,5.22
2022-12-25T03:16:53.649Z,6.05
2022-12-25T03:19:42.292Z,6.28
2022-12-25T03:22:31.894Z,5.28
2022-12-25T03:25:17.205Z,5.45
2022-12-25T03:27:46.950Z,5.55
2022-12-25T03:30:46.077Z,6.80
2022-12-25T03:33:44.555Z,6.43
2022-12-25T03:36:51.060Z,6.38
2022-12-25T03:39:59.951Z,6.32
2022-12-25T03:42:43.233Z,5.95
2022-12-25T03:45:51.283Z,6.53
2022-12-25T03:48:37.407Z,6.47
2022-12-25T03:51:28.665Z,5.90
2022-12-25T03:54:19.925Z,5.30
2022-12-25T03:57:05.850Z,5.45
2022-12-25T03:59:51.056Z,5.53
2022-12-25T04:02:56.205Z,5.85
2022-12-25T04:05:41.838Z,6.03
2022-12-25T04:08:27.315Z,6.78
2022-12-25T04:11:12.922Z,6.07
2022-12-25T04:14:23.891Z,6.70
2022-12-25T04:17:12.294Z,5.93
2022-12-25T04:19:57.113Z,5.63
2022-12-25T04:22:42.448Z,6.57
2022-12-25T04:25:27.619Z,5.72
2022-12-25T04:28:12.500Z,5.95
2022-12-25T04:30:57.935Z,6.93
2022-12-25T04:33:43.139Z,6.53
2022-12-25T04:36:09.717Z,6.80
2022-12-25T04:38:37.628Z,7.03
2022-12-25T04:41:05.039Z,6.93
2022-12-25T04:43:31.649Z,7.07
2022-12-25T04:46:00.198Z,6.15
2022-12-25T04:48:28.502Z,7.15
2022-12-25T04:50:55.263Z,6.60
2022-12-25T04:53:22.940Z,6.25
2022-12-25T04:55:49.649Z,6.85
2022-12-25T04:58:16.275Z,6.45
2022-12-25T05:00:42.842Z,6.70
2022-12-25T05:03:09.509Z,6.47
2022-12-25T05:05:39.323Z,6.47
2022-12-25T05:08:06.165Z,6.47
2022-12-25T05:10:32.803Z,7.03
2022-12-25T05:12:59.495Z,7.22
2022-12-25T05:15:26.156Z,7.10
2022-12-25T05:17:52.732Z,8.30
2022-12-25T05:20:19.376Z,8.07
2022-12-25T05:22:45.952Z,6.95
2022-12-25T05:25:12.524Z,6.55
2022-12-25T05:27:39.333Z,7.07
2022-12-25T05:30:06.690Z,7.68
2022-12-25T05:32:33.239Z,8.45
2022-12-25T05:35:00.504Z,6.65
2022-12-25T05:37:27.125Z,7.32
2022-12-25T05:39:53.670Z,7.35
2022-12-25T05:42:20.319Z,7.53
2022-12-25T05:44:46.868Z,7.15
2022-12-25T05:47:13.403Z,8.25
2022-12-25T05:49:39.989Z,8.40
2022-12-25T05:52:06.630Z,7.97
2022-12-25T05:54:34.726Z,6.97
2022-12-25T05:57:01.428Z,8.20
2022-12-25T05:59:32.635Z,7.90
2022-12-25T06:02:00.141Z,7.55
2022-12-25T06:04:26.880Z,7.60
2022-12-25T06:06:53.754Z,7.50
2022-12-25T06:09:20.356Z,8.70
2022-12-25T06:11:46.994Z,7.53
2022-12-25T06:14:15.523Z,8.40
2022-12-25T06:16:42.689Z,7.68
2022-12-25T06:19:09.446Z,8.40
2022-12-25T06:21:36.191Z,7.72
2022-12-25T06:24:03.142Z,7.63
2022-12-25T06:26:29.775Z,9.02
2022-12-25T06:28:56.381Z,7.53
2022-12-25T06:31:24.224Z,7.20
2022-12-25T06:33:51.218Z,8.43
2022-12-25T06:36:23.071Z,8.57
2022-12-25T06:41:22.408Z,8.13
2022-12-25T06:43:54.740Z,8.02
2022-12-25T06:46:22.529Z,9.23
2022-12-25T06:48:49.966Z,8.30
2022-12-25T06:51:18.745Z,7.43
2022-12-25T06:53:45.808Z,6.97
2022-12-25T06:56:15.967Z,8.48
2022-12-25T06:58:48.016Z,7.95
2022-12-25T07:01:22.230Z,8.98
2022-12-25T07:03:51.661Z,8.45
2022-12-25T07:06:18.375Z,7.85
2022-12-25T07:08:45.101Z,7.28
2022-12-25T07:11:12.048Z,8.75
2022-12-25T07:13:38.768Z,8.80
2022-12-25T07:16:07.669Z,7.97
2022-12-25T07:18:35.188Z,8.45
2022-12-25T07:21:16.907Z,8.95
2022-12-25T07:23:45.291Z,7.68
2022-12-25T07:26:12.937Z,7.68
2022-12-25T07:28:39.881Z,8.20
2022-12-25T07:31:15.529Z,8.52
2022-12-25T07:33:43.008Z,7.90
2022-12-25T07:36:12.610Z,8.43
2022-12-25T07:38:43.516Z,8.52
2022-12-25T07:41:12.967Z,8.18
2022-12-25T07:43:40.060Z,9.18
2022-12-25T07:46:06.939Z,9.15
2022-12-25T07:48:34.238Z,7.68
2022-12-25T07:51:05.712Z,7.97
2022-12-25T07:53:33.305Z,7.85
2022-12-25T07:56:02.637Z,9.50
2022-12-25T07:58:30.454Z,8.23
2022-12-25T08:01:19.621Z,8.52
2022-12-25T08:03:58.025Z,9.15
2022-12-25T08:06:29.797Z,7.38
2022-12-25T08:09:08.921Z,7.63
2022-12-25T08:11:37.016Z,8.30
2022-12-25T08:14:08.732Z,8.77
2022-12-25T08:16:36.160Z,8.55
2022-12-25T08:19:03.001Z,8.30
2022-12-25T08:21:29.832Z,7.85
2022-12-25T08:23:56.980Z,8.43
2022-12-25T08:26:24.094Z,9.43
2022-12-25T08:28:51.444Z,8.23
2022-12-25T08:31:22.519Z,7.85
2022-12-25T08:33:52.147Z,8.48
2022-12-25T08:36:19.409Z,9.25
2022-12-25T08:38:54.570Z,8.52
2022-12-25T08:41:26.921Z,10.25
2022-12-25T08:43:54.611Z,8.43
2022-12-25T08:46:21.367Z,10.43
2022-12-25T08:48:49.663Z,11.02
2022-12-25T08:51:19.192Z,10.40
2022-12-25T08:53:47.761Z,10.15
2022-12-25T08:56:15.110Z,9.70
2022-12-25T08:58:42.044Z,9.68
2022-12-25T09:01:08.845Z,10.45
2022-12-25T09:03:35.890Z,10.90
2022-12-25T09:06:08.817Z,10.93
2022-12-25T09:08:36.265Z,11.13
2022-12-25T09:11:09.651Z,9.93
2022-12-25T09:13:37.039Z,9.73
2022-12-25T09:16:12.830Z,8.77
2022-12-25T09:18:39.706Z,9.07
2022-12-25T09:21:09.766Z,8.63
2022-12-25T09:23:36.587Z,10.48
2022-12-25T09:26:06.014Z,8.93
2022-12-25T09:28:33.555Z,11.73
2022-12-25T09:31:00.363Z,10.05
2022-12-25T09:33:27.774Z,9.98
2022-12-25T09:35:58.490Z,10.27
2022-12-25T09:38:25.738Z,9.15
2022-12-25T09:41:21.754Z,10.43
2022-12-25T09:44:10.081Z,8.60
2022-12-25T09:47:12.550Z,9.82
2022-12-25T09:49:49.807Z,8.60
2022-12-25T09:52:20.841Z,9.10
2022-12-25T09:55:00.097Z,9.73
2022-12-25T09:57:26.828Z,7.45
2022-12-25T09:59:56.961Z,9.20
2022-12-25T10:03:01.076Z,9.05
2022-12-25T10:05:46.139Z,10.70
2022-12-25T10:08:43.374Z,7.80
2022-12-25T10:11:22.442Z,9.40
2022-12-25T10:14:10.533Z,7.65
2022-12-25T10:16:40.241Z,7.78
2022-12-25T10:19:28.001Z,8.35
2022-12-25T10:22:00.877Z,8.73
2022-12-25T10:24:38.717Z,6.35
2022-12-25T10:27:15.764Z,6.88
2022-12-25T10:29:46.482Z,8.25
2022-12-25T10:32:13.783Z,7.53
2022-12-25T10:34:43.599Z,7.10
2022-12-25T10:37:11.941Z,7.35
2022-12-25T10:39:45.881Z,6.40
2022-12-25T10:42:39.014Z,6.57
2022-12-25T10:45:09.419Z,5.75
2022-12-25T10:47:42.030Z,5.97
2022-12-25T10:50:17.824Z,4.35
2022-12-25T10:53:05.961Z,5.18
2022-12-25T10:55:33.414Z,4.72
2022-12-25T10:58:02.090Z,4.85
2022-12-25T11:00:31.478Z,6.18
2022-12-25T11:02:58.975Z,5.18
2022-12-25T11:05:30.281Z,5.35
2022-12-25T11:07:59.511Z,4.65
2022-12-25T11:10:34.638Z,5.15
2022-12-25T11:13:02.728Z,5.22
2022-12-25T11:15:46.486Z,5.97
2022-12-25T11:20:55.933Z,4.57
2022-12-25T11:23:24.520Z,5.55
2022-12-25T11:26:06.176Z,4.75
2022-12-25T11:28:35.008Z,6.18
2022-12-25T11:31:07.028Z,5.65
2022-12-25T11:33:38.824Z,5.95
2022-12-25T11:36:20.079Z,5.68
2022-12-25T11:38:46.981Z,6.22
2022-12-25T11:41:20.707Z,5.13
2022-12-25T11:43:53.965Z,5.75
2022-12-25T11:46:33.691Z,5.50
2022-12-25T11:49:10.704Z,4.60
2022-12-25T11:51:40.322Z,6.63
2022-12-25T11:54:22.173Z,5.93
2022-12-25T11:56:49.321Z,6.53
2022-12-25T11:59:27.729Z,6.47
2022-12-25T12:02:32.164Z,5.75
2022-12-25T12:05:09.237Z,7.20
2022-12-25T12:07:39.634Z,5.78
2022-12-25T12:10:16.283Z,6.40
2022-12-25T12:13:31.074Z,6.15
2022-12-25T12:15:58.621Z,6.63
2022-12-25T12:18:28.067Z,6.82
2022-12-25T12:21:20.963Z,6.35
2022-12-25T12:23:56.173Z,6.80
2022-12-25T12:26:25.444Z,6.65
2022-12-25T12:28:55.509Z,6.07
2022-12-25T12:31:22.539Z,5.78
2022-12-25T12:33:54.472Z,7.22
2022-12-25T12:36:35.599Z,6.03
2022-12-25T12:39:05.965Z,6.03
2022-12-25T12:41:45.946Z,6.70
2022-12-25T12:44:14.390Z,6.15
2022-12-25T12:46:54.159Z,6.93
2022-12-25T12:49:28.111Z,5.95
2022-12-25T12:52:24.452Z,6.13
2022-12-25T12:55:06.169Z,5.68
2022-12-25T12:57:39.964Z,5.63
2022-12-25T13:00:19.411Z,5.45
2022-12-25T13:02:58.018Z,6.18
2022-12-25T13:05:39.235Z,6.68
2022-12-25T13:08:28.377Z,6.10
2022-12-25T13:11:23.203Z,6.47
2022-12-25T13:13:52.838Z,6.50
2022-12-25T13:16:33.368Z,7.15
2022-12-25T13:19:05.514Z,6.80
2022-12-25T13:21:33.210Z,6.40
2022-12-25T13:24:09.022Z,6.53
2022-12-25T13:26:36.306Z,6.78
2022-12-25T13:29:07.951Z,7.03
2022-12-25T13:31:37.898Z,6.97
2022-12-25T13:34:14.317Z,7.20
2022-12-25T13:36:41.124Z,7.25
2022-12-25T13:39:09.866Z,6.63
2022-12-25T13:42:08.614Z,6.45
2022-12-25T13:44:49.108Z,7.72
2022-12-25T13:47:23.885Z,7.95
2022-12-25T13:49:52.641Z,7.22
2022-12-25T13:52:27.349Z,9.52
2022-12-25T13:55:00.704Z,8.65
2022-12-25T13:57:31.354Z,8.38
2022-12-25T13:59:58.157Z,8.98
2022-12-25T14:02:31.048Z,7.05
2022-12-25T14:04:58.055Z,6.82
2022-12-25T14:07:25.365Z,8.63
2022-12-25T14:10:00.485Z,8.50
2022-12-25T14:12:30.352Z,8.07
2022-12-25T14:15:00.369Z,9.15
2022-12-25T14:17:27.314Z,9.77
2022-12-25T14:20:05.653Z,9.43
2022-12-25T14:22:36.102Z,9.60
2022-12-25T14:25:02.840Z,8.50
2022-12-25T14:27:32.941Z,9.45
2022-12-25T14:30:00.689Z,8.88
2022-12-25T14:32:38.314Z,9.02
2022-12-25T14:37:34.130Z,8.35
2022-12-25T14:40:05.153Z,8.48
2022-12-25T14:42:35.337Z,7.88
2022-12-25T14:45:24.834Z,7.88
2022-12-25T14:47:54.285Z,7.57
2022-12-25T14:50:27.391Z,8.48
2022-12-25T14:52:54.284Z,7.38
2022-12-25T14:55:24.301Z,8.52
2022-12-25T14:58:04.971Z,8.30
2022-12-25T15:00:37.940Z,8.05
2022-12-25T15:03:15.854Z,10.90
2022-12-25T15:05:42.781Z,7.38
2022-12-25T15:08:10.253Z,6.70
2022-12-25T15:13:26.287Z,9.25
2022-12-25T15:16:04.368Z,9.63
2022-12-25T15:18:37.155Z,8.27
2022-12-25T15:21:04.129Z,7.22
2022-12-25T15:23:31.049Z,7.22
2022-12-25T15:25:57.983Z,7.90
2022-12-25T15:28:24.820Z,7.95
2022-12-25T15:30:52.210Z,7.82
2022-12-25T15:33:19.397Z,7.75
2022-12-25T15:35:46.469Z,8.13
2022-12-25T15:38:13.718Z,7.90
2022-12-25T15:40:42.249Z,6.85
2022-12-25T15:43:39.028Z,7.68
2022-12-25T15:46:00.864Z,7.28
2022-12-25T15:48:27.728Z,6.78
2022-12-25T15:50:54.534Z,8.60
2022-12-25T15:53:21.175Z,7.43
2022-12-25T15:55:48.028Z,7.57
2022-12-25T15:58:15.288Z,7.72
2022-12-25T16:00:42.107Z,7.70
2022-12-25T16:03:09.828Z,6.88
2022-12-25T16:05:37.199Z,8.20
2022-12-25T16:08:04.036Z,8.15
2022-12-25T16:10:36.622Z,7.40
2022-12-25T16:13:06.200Z,8.27
2022-12-25T16:15:33.130Z,8.02
2022-12-25T16:17:59.925Z,7.40
2022-12-25T16:20:26.892Z,7.95
2022-12-25T16:22:53.651Z,7.25
2022-12-25T16:25:20.538Z,6.75
2022-12-25T16:27:48.069Z,7.43
2022-12-25T16:30:17.580Z,7.95
2022-12-25T16:32:48.195Z,7.22
2022-12-25T16:35:14.952Z,6.95
2022-12-25T16:37:41.620Z,7.35
2022-12-25T16:40:09.728Z,7.20
2022-12-25T16:42:37.775Z,8.07
2022-12-25T16:45:04.922Z,7.10
2022-12-25T16:47:31.680Z,7.30
2022-12-25T16:49:58.393Z,6.95
2022-12-25T16:52:25.082Z,7.68
2022-12-25T16:54:52.800Z,7.47
2022-12-25T16:57:19.467Z,7.22
2022-12-25T16:59:46.749Z,9.20
2022-12-25T17:02:22.559Z,9.35
2022-12-25T17:04:49.679Z,8.35
2022-12-25T17:07:17.570Z,9.50
2022-12-25T17:09:48.479Z,7.65
2022-12-25T17:14:43.619Z,8.75
2022-12-25T17:17:10.427Z,8.93
2022-12-25T17:19:37.278Z,8.55
2022-12-25T17:22:04.588Z,8.40
2022-12-25T17:24:33.910Z,9.18
2022-12-25T17:27:00.952Z,8.10
2022-12-25T17:29:27.881Z,8.38
2022-12-25T17:31:56.332Z,8.15
2022-12-25T17:34:23.083Z,8.52
2022-12-25T17:36:49.795Z,8.63
2022-12-25T17:39:16.445Z,8.50
2022-12-25T17:41:43.499Z,7.40
2022-12-25T17:44:10.631Z,8.18
2022-12-25T17:46:42.244Z,9.85
2022-12-25T17:49:14.329Z,7.97
2022-12-25T17:51:42.194Z,8.20
2022-12-25T17:54:09.668Z,8.98
2022-12-25T17:56:37.398Z,8.90
2022-12-25T17:59:08.528Z,7.68
2022-12-25T18:01:38.644Z,8.02
2022-12-25T18:04:06.329Z,9.45
2022-12-25T18:06:35.894Z,8.75
2022-12-25T18:09:05.330Z,9.02
2022-12-25T18:11:36.796Z,9.77
2022-12-25T18:14:06.804Z,7.65
2022-12-25T18:16:35.344Z,8.80
2022-12-25T18:19:02.168Z,8.05
2022-12-25T18:21:29.293Z,8.32
2022-12-25T18:23:56.143Z,9.73
2022-12-25T18:26:23.500Z,6.88
2022-12-25T18:28:51.021Z,7.45
2022-12-25T18:31:20.790Z,8.93
2022-12-25T18:33:47.997Z,8.57
2022-12-25T18:36:16.870Z,8.32
2022-12-25T18:38:43.796Z,8.50
2022-12-25T18:41:11.377Z,9.45
2022-12-25T18:43:52.096Z,7.50
2022-12-25T18:46:27.115Z,8.90
2022-12-25T18:48:56.196Z,8.35
2022-12-25T18:51:23.639Z,8.85
2022-12-25T18:53:51.419Z,7.70
2022-12-25T18:56:19.531Z,7.82
2022-12-25T18:58:47.242Z,9.50
2022-12-25T19:01:19.440Z,9.23
2022-12-25T19:03:49.205Z,8.38
2022-12-25T19:06:22.952Z,8.73
2022-12-25T19:08:50.143Z,8.98
2022-12-25T19:11:17.625Z,10.00
2022-12-25T19:13:44.354Z,10.30
2022-12-25T19:16:11.626Z,10.02
2022-12-25T19:18:39.199Z,9.18
2022-12-25T19:21:08.162Z,11.10
2022-12-25T19:23:35.540Z,9.82
2022-12-25T19:26:05.601Z,8.80
2022-12-25T19:28:32.497Z,9.15
2022-12-25T19:31:00.346Z,8.88
2022-12-25T19:33:27.240Z,10.23
2022-12-25T19:35:53.928Z,8.43
2022-12-25T19:38:21.520Z,8.98
2022-12-25T19:41:01.000Z,10.43
2022-12-25T19:43:30.183Z,8.30
2022-12-25T19:45:59.607Z,8.80
2022-12-25T19:48:26.414Z,9.10
2022-12-25T19:50:53.366Z,8.30
2022-12-25T19:53:23.569Z,8.98
2022-12-25T19:55:54.734Z,9.77
2022-12-25T19:58:22.424Z,9.85
2022-12-25T20:01:07.734Z,10.18
2022-12-25T20:03:38.801Z,10.48
2022-12-25T20:06:11.240Z,9.70
2022-12-25T20:08:37.836Z,7.97
2022-12-25T20:11:04.497Z,8.52
2022-12-25T20:13:31.300Z,8.68
2022-12-25T20:16:01.752Z,8.48
2022-12-25T20:18:29.029Z,7.75
2022-12-25T20:21:07.993Z,10.05
2022-12-25T20:23:35.954Z,9.52
2022-12-25T20:26:04.825Z,8.57
2022-12-25T20:28:33.496Z,10.52
2022-12-25T20:31:08.479Z,9.02
2022-12-25T20:33:36.215Z,9.73
2022-12-25T20:36:04.177Z,8.25
2022-12-25T20:38:35.192Z,7.65
2022-12-25T20:43:54.749Z,6.45
2022-12-25T20:46:22.654Z,7.38
2022-12-25T20:48:49.398Z,7.50
2022-12-25T20:51:18.693Z,7.13
2022-12-25T20:53:46.499Z,7.20
2022-12-25T20:56:18.936Z,6.93
2022-12-25T20:58:45.844Z,6.75
2022-12-25T21:01:19.227Z,6.55
2022-12-25T21:03:46.276Z,6.22
2022-12-25T21:06:13.410Z,6.20
2022-12-25T21:08:41.122Z,5.65
2022-12-25T21:11:08.630Z,5.80
2022-12-25T21:13:38.640Z,6.63
2022-12-25T21:16:07.198Z,7.53
2022-12-25T21:18:34.278Z,7.30
2022-12-25T21:21:05.541Z,5.88
2022-12-25T21:23:33.142Z,6.70
2022-12-25T21:25:59.852Z,6.15
2022-12-25T21:28:27.279Z,5.07
2022-12-25T21:30:53.933Z,5.72
2022-12-25T21:33:38.974Z,4.93
2022-12-25T21:36:10.638Z,5.65
2022-12-25T21:38:38.572Z,5.95
2022-12-25T21:41:07.770Z,6.72
2022-12-25T21:43:35.554Z,6.18
2022-12-25T21:46:12.017Z,5.95
2022-12-25T21:48:40.189Z,7.93
2022-12-25T21:51:46.914Z,6.07
2022-12-25T21:54:14.145Z,6.53
2022-12-25T21:56:45.171Z,6.75
2022-12-25T21:59:15.610Z,5.57
2022-12-25T22:01:42.741Z,6.53
2022-12-25T22:04:11.327Z,6.22
2022-12-25T22:06:56.319Z,6.72
2022-12-25T22:09:23.582Z,6.68
2022-12-25T22:12:08.803Z,6.15
2022-12-25T22:14:54.800Z,5.85
2022-12-25T22:17:42.764Z,6.93
2022-12-25T22:20:12.550Z,6.22
2022-12-25T22:22:39.259Z,6.07
2022-12-25T22:25:07.103Z,5.78
2022-12-25T22:27:36.391Z,6.15
2022-12-25T22:30:03.763Z,6.85
2022-12-25T22:32:30.390Z,5.38
2022-12-25T22:34:57.108Z,6.55
2022-12-25T22:37:24.308Z,5.03
2022-12-25T22:39:51.037Z,5.97
2022-12-25T22:42:17.840Z,5.97
2022-12-25T22:44:45.761Z,5.07
2022-12-25T22:47:12.358Z,5.78
2022-12-25T22:49:39.593Z,5.90
2022-12-25T22:52:08.067Z,5.30
2022-12-25T22:54:34.890Z,6.13
2022-12-25T22:57:01.709Z,5.30
2022-12-25T22:59:28.426Z,5.85
2022-12-25T23:01:55.191Z,5.13
2022-12-25T23:04:22.089Z,5.50
2022-12-25T23:06:48.888Z,6.25
2022-12-25T23:09:24.365Z,5.50
2022-12-25T23:11:51.595Z,5.55
2022-12-25T23:14:36.857Z,5.28
2022-12-25T23:17:03.590Z,5.90
2022-12-25T23:19:49.169Z,5.72
2022-12-25T23:22:34.468Z,5.97
2022-12-25T23:25:19.828Z,5.40
2022-12-25T23:27:46.648Z,4.28
2022-12-25T23:30:16.610Z,5.28
2022-12-25T23:32:44.257Z,4.70
2022-12-25T23:35:11.464Z,5.70
2022-12-25T23:37:38.076Z,5.10
2022-12-25T23:40:05.312Z,5.20
2022-12-25T23:42:32.033Z,5.85
2022-12-25T23:44:58.607Z,5.03
2022-12-25T23:47:25.316Z,5.65
2022-12-25T23:49:52.003Z,5.43
2022-12-25T23:52:18.621Z,4.93
2022-12-25T23:54:45.249Z,5.45
2022-12-25T23:57:12.019Z,6.15
2022-12-25T23:59:39.436Z,5.10
